Date,TemperatureHighF,TemperatureAvgF,TemperatureLowF,DewpointHighF,DewpointAvgF,DewpointLowF,HumidityHigh,HumidityAvg,HumidityLow,PressureMaxIn,PressureMinIn,WindSpeedMaxMPH,WindSpeedAvgMPH,GustSpeedMaxMPH,PrecipitationSumIn
2013-11-1,64.6,60.1,53.8,61.8,56.9,50.0,95,89,78,29.91,29.63,6,4,17,0.11
2013-11-2,61.3,49.2,38.1,49.7,42.8,36.3,94,80,53,29.95,29.75,3,0,5,0.03
2013-11-3,45.1,39.0,27.9,42.9,28.1,17.3,93,66,40,30.61,29.88,3,2,9,0.03
2013-11-4,38.5,28.9,21.4,20.2,18.4,16.8,86,66,43,30.89,30.60,3,1,4,0.00
2013-11-5,46.9,34.1,22.3,35.1,27.6,18.6,90,78,54,30.81,30.62,3,0,4,0.00
2013-11-6,56.7,48.0,36.3,46.4,41.4,33.1,90,79,62,30.61,30.17,4,2,12,0.00
2013-11-7,63.0,51.1,36.1,55.8,47.9,34.0,93,89,77,30.17,29.85,5,3,13,0.11
2013-11-8,44.1,36.7,26.8,35.6,28.1,22.0,92,72,52,30.42,30.01,6,2,15,0.00
2013-11-9,41.4,30.1,24.6,26.2,23.6,21.3,88,78,53,30.33,30.21,3,1,6,0.00
2013-11-10,48.4,43.6,41.0,40.0,38.9,38.1,91,84,70,29.98,29.93,3,2,6,0.00
2013-11-11,41.5,37.5,34.2,28.4,27.2,25.9,73,66,59,30.23,30.15,4,3,10,0.00
2013-11-12,36.5,30.1,23.9,34.1,23.8,16.1,91,77,66,30.37,30.07,4,2,10,0.03
2013-11-13,32.2,25.7,20.1,18.0,15.4,12.3,81,66,44,30.43,30.25,4,2,12,0.00
2013-11-14,46.6,35.0,27.7,25.6,21.6,17.5,76,59,42,30.32,30.16,5,2,10,0.00
2013-11-15,58.1,41.3,27.5,28.9,22.7,19.5,73,50,22,30.38,30.22,4,1,7,0.00
2013-11-16,54.9,42.6,30.0,33.6,28.7,26.5,87,60,38,30.52,30.31,2,1,5,0.00
2013-11-17,52.9,41.7,29.7,45.5,37.9,26.3,92,86,73,30.44,29.98,2,0,2,0.03
2013-11-18,59.7,52.6,43.3,58.3,45.2,32.0,95,77,55,29.96,29.68,7,2,13,0.17
2013-11-19,43.3,36.4,28.2,31.7,22.4,15.9,65,57,48,30.45,29.81,6,4,17,0.00
2013-11-20,38.7,28.1,19.0,17.2,15.0,11.9,83,59,33,30.81,30.40,5,2,9,0.00
2013-11-21,42.8,29.8,16.7,32.8,22.0,13.5,90,74,50,30.80,30.48,3,1,9,0.00
2013-11-22,47.7,43.4,39.2,45.5,40.3,33.3,93,89,77,30.46,29.94,3,0,7,0.11
2013-11-23,47.3,36.7,25.7,44.7,26.4,17.6,92,67,45,30.06,29.92,6,4,13,0.00
2013-11-24,26.1,20.2,16.0,18.8,6.1,-0.3,78,55,34,30.35,29.92,8,5,17,0.00
2013-11-25,29.7,21.9,12.7,17.2,6.5,-0.5,62,52,34,30.51,30.30,5,2,15,0.00
2013-11-26,38.3,32.8,27.7,31.2,23.3,14.2,92,69,52,30.44,30.15,3,1,8,0.17
2013-11-27,60.3,44.5,33.3,58.8,42.8,31.2,95,94,92,30.14,29.39,5,2,13,2.05
2013-11-28,34.0,26.8,19.6,32.2,17.1,10.0,93,68,45,30.59,29.62,7,4,18,0.00
2013-11-29,30.4,22.9,12.4,16.9,12.9,7.7,85,66,49,30.89,30.52,5,1,10,0.00
2013-11-30,29.7,19.8,8.2,21.6,13.0,4.9,87,75,59,30.87,30.52,2,0,6,0.00